sensor_id;sensor_type;location;lat;lon;timestamp;P1;durP1;ratioP1;P2;durP2;ratioP2
3054;SDS011;1537;52.018;8.542;2023-04-15T00:02:13;11.80;;;8.40;;
3054;SDS011;1537;52.018;8.542;2023-04-15T00:05:39;10.30;;;7.23;;
3054;SDS011;1537;52.018;8.542;2023-04-15T00:09:04;10.07;;;8.30;;
3054;SDS011;1537;52.018;8.542;2023-04-15T00:12:28;11.47;;;8.70;;
3054;SDS011;1537;52.018;8.542;2023-04-15T00:15:51;11.10;;;8.40;;
3054;SDS011;1537;52.018;8.542;2023-04-15T00:19:15;12.00;;;8.60;;
3054;SDS011;1537;52.018;8.542;2023-04-15T00:22:38;14.97;;;8.90;;
3054;SDS011;1537;52.018;8.542;2023-04-15T00:26:03;12.10;;;8.10;;
3054;SDS011;1537;52.018;8.542;2023-04-15T00:29:28;11.10;;;8.60;;
3054;SDS011;1537;52.018;8.542;2023-04-15T00:32:52;11.17;;;7.77;;
3054;SDS011;1537;52.018;8.542;2023-04-15T00:36:16;10.83;;;7.30;;
3054;SDS011;1537;52.018;8.542;2023-04-15T00:39:40;11.20;;;8.23;;
3054;SDS011;1537;52.018;8.542;2023-04-15T00:43:05;14.60;;;11.80;;
3054;SDS011;1537;52.018;8.542;2023-04-15T00:46:34;11.40;;;9.23;;
3054;SDS011;1537;52.018;8.542;2023-04-15T00:49:58;14.97;;;8.97;;
3054;SDS011;1537;52.018;8.542;2023-04-15T00:53:22;12.83;;;10.33;;
3054;SDS011;1537;52.018;8.542;2023-04-15T00:56:45;12.97;;;8.97;;
3054;SDS011;1537;52.018;8.542;2023-04-15T01:00:11;10.87;;;8.70;;
3054;SDS011;1537;52.018;8.542;2023-04-15T01:03:35;12.53;;;8.83;;
3054;SDS011;1537;52.018;8.542;2023-04-15T01:06:59;10.67;;;7.80;;
3054;SDS011;1537;52.018;8.542;2023-04-15T01:10:23;14.67;;;8.90;;
3054;SDS011;1537;52.018;8.542;2023-04-15T01:13:47;11.40;;;8.90;;
3054;SDS011;1537;52.018;8.542;2023-04-15T01:17:13;11.20;;;9.00;;
3054;SDS011;1537;52.018;8.542;2023-04-15T01:20:37;12.70;;;10.10;;
3054;SDS011;1537;52.018;8.542;2023-04-15T01:24:01;13.17;;;9.20;;
3054;SDS011;1537;52.018;8.542;2023-04-15T01:27:31;13.53;;;10.70;;
3054;SDS011;1537;52.018;8.542;2023-04-15T01:31:06;17.30;;;9.93;;
3054;SDS011;1537;52.018;8.542;2023-04-15T01:34:31;11.70;;;9.13;;
3054;SDS011;1537;52.018;8.542;2023-04-15T01:38:15;13.60;;;9.17;;
3054;SDS011;1537;52.018;8.542;2023-04-15T01:41:39;15.80;;;10.23;;
3054;SDS011;1537;52.018;8.542;2023-04-15T01:45:06;13.87;;;9.53;;
3054;SDS011;1537;52.018;8.542;2023-04-15T01:48:33;13.00;;;8.90;;
3054;SDS011;1537;52.018;8.542;2023-04-15T01:51:59;15.17;;;9.90;;
3054;SDS011;1537;52.018;8.542;2023-04-15T01:55:24;11.90;;;9.73;;
3054;SDS011;1537;52.018;8.542;2023-04-15T01:58:49;13.97;;;10.80;;
3054;SDS011;1537;52.018;8.542;2023-04-15T02:02:15;14.33;;;10.23;;
3054;SDS011;1537;52.018;8.542;2023-04-15T02:05:40;13.10;;;9.90;;
3054;SDS011;1537;52.018;8.542;2023-04-15T02:09:06;12.60;;;9.37;;
3054;SDS011;1537;52.018;8.542;2023-04-15T02:12:31;13.87;;;10.30;;
3054;SDS011;1537;52.018;8.542;2023-04-15T02:15:56;12.07;;;8.27;;
3054;SDS011;1537;52.018;8.542;2023-04-15T02:19:23;14.80;;;9.70;;
3054;SDS011;1537;52.018;8.542;2023-04-15T02:22:48;12.10;;;9.03;;
3054;SDS011;1537;52.018;8.542;2023-04-15T02:26:13;11.60;;;8.50;;
3054;SDS011;1537;52.018;8.542;2023-04-15T02:29:38;14.47;;;9.20;;
3054;SDS011;1537;52.018;8.542;2023-04-15T02:33:03;12.13;;;7.90;;
3054;SDS011;1537;52.018;8.542;2023-04-15T02:36:30;12.33;;;9.27;;
3054;SDS011;1537;52.018;8.542;2023-04-15T02:39:56;13.60;;;9.90;;
3054;SDS011;1537;52.018;8.542;2023-04-15T02:43:22;13.80;;;9.57;;
3054;SDS011;1537;52.018;8.542;2023-04-15T02:46:47;11.90;;;8.47;;
3054;SDS011;1537;52.018;8.542;2023-04-15T02:50:14;12.87;;;8.70;;
3054;SDS011;1537;52.018;8.542;2023-04-15T02:53:41;12.23;;;8.97;;
3054;SDS011;1537;52.018;8.542;2023-04-15T02:57:06;11.00;;;8.40;;
3054;SDS011;1537;52.018;8.542;2023-04-15T03:00:31;11.40;;;8.57;;
3054;SDS011;1537;52.018;8.542;2023-04-15T03:03:56;12.60;;;8.80;;
3054;SDS011;1537;52.018;8.542;2023-04-15T03:07:21;14.10;;;10.00;;
3054;SDS011;1537;52.018;8.542;2023-04-15T03:10:47;13.07;;;9.27;;
3054;SDS011;1537;52.018;8.542;2023-04-15T03:14:14;12.60;;;9.40;;
3054;SDS011;1537;52.018;8.542;2023-04-15T03:17:42;12.87;;;8.83;;
3054;SDS011;1537;52.018;8.542;2023-04-15T03:21:08;15.10;;;9.67;;
3054;SDS011;1537;52.018;8.542;2023-04-15T03:24:34;12.43;;;10.40;;
3054;SDS011;1537;52.018;8.542;2023-04-15T03:28:00;12.70;;;8.77;;
3054;SDS011;1537;52.018;8.542;2023-04-15T03:31:25;12.20;;;9.23;;
3054;SDS011;1537;52.018;8.542;2023-04-15T03:34:50;11.87;;;8.73;;
3054;SDS011;1537;52.018;8.542;2023-04-15T03:38:15;16.10;;;9.50;;
3054;SDS011;1537;52.018;8.542;2023-04-15T03:41:40;13.70;;;9.47;;
3054;SDS011;1537;52.018;8.542;2023-04-15T03:45:07;13.17;;;8.80;;
3054;SDS011;1537;52.018;8.542;2023-04-15T03:48:32;13.27;;;9.00;;
3054;SDS011;1537;52.018;8.542;2023-04-15T03:51:57;15.03;;;9.00;;
3054;SDS011;1537;52.018;8.542;2023-04-15T03:55:22;11.43;;;9.33;;
3054;SDS011;1537;52.018;8.542;2023-04-15T03:58:47;13.97;;;9.90;;
3054;SDS011;1537;52.018;8.542;2023-04-15T04:02:13;10.10;;;7.90;;
3054;SDS011;1537;52.018;8.542;2023-04-15T04:05:38;17.53;;;11.60;;
3054;SDS011;1537;52.018;8.542;2023-04-15T04:09:04;16.80;;;10.77;;
3054;SDS011;1537;52.018;8.542;2023-04-15T04:12:29;14.03;;;10.10;;
3054;SDS011;1537;52.018;8.542;2023-04-15T04:15:54;14.50;;;10.57;;
3054;SDS011;1537;52.018;8.542;2023-04-15T04:19:20;15.63;;;9.83;;
3054;SDS011;1537;52.018;8.542;2023-04-15T04:22:45;14.10;;;9.80;;
3054;SDS011;1537;52.018;8.542;2023-04-15T04:26:10;14.10;;;10.37;;
3054;SDS011;1537;52.018;8.542;2023-04-15T04:29:35;13.53;;;10.10;;
3054;SDS011;1537;52.018;8.542;2023-04-15T04:33:00;17.33;;;12.60;;
3054;SDS011;1537;52.018;8.542;2023-04-15T04:36:26;16.73;;;10.20;;
3054;SDS011;1537;52.018;8.542;2023-04-15T04:39:51;16.47;;;11.30;;
3054;SDS011;1537;52.018;8.542;2023-04-15T04:43:16;14.17;;;10.57;;
3054;SDS011;1537;52.018;8.542;2023-04-15T04:46:41;15.63;;;10.97;;
3054;SDS011;1537;52.018;8.542;2023-04-15T04:50:07;16.30;;;11.40;;
3054;SDS011;1537;52.018;8.542;2023-04-15T04:53:33;16.50;;;10.90;;
3054;SDS011;1537;52.018;8.542;2023-04-15T04:57:00;14.53;;;10.97;;
3054;SDS011;1537;52.018;8.542;2023-04-15T05:00:25;18.07;;;12.93;;
3054;SDS011;1537;52.018;8.542;2023-04-15T05:03:50;16.40;;;11.03;;
3054;SDS011;1537;52.018;8.542;2023-04-15T05:07:15;16.10;;;12.50;;
3054;SDS011;1537;52.018;8.542;2023-04-15T05:10:41;17.73;;;10.63;;
3054;SDS011;1537;52.018;8.542;2023-04-15T05:14:06;15.13;;;11.37;;
3054;SDS011;1537;52.018;8.542;2023-04-15T05:17:31;20.37;;;12.60;;
3054;SDS011;1537;52.018;8.542;2023-04-15T05:20:57;17.23;;;11.33;;
3054;SDS011;1537;52.018;8.542;2023-04-15T05:24:23;16.30;;;11.40;;
3054;SDS011;1537;52.018;8.542;2023-04-15T05:27:49;16.13;;;11.40;;
3054;SDS011;1537;52.018;8.542;2023-04-15T05:31:14;20.83;;;12.33;;
3054;SDS011;1537;52.018;8.542;2023-04-15T05:34:39;18.53;;;12.77;;
3054;SDS011;1537;52.018;8.542;2023-04-15T05:38:04;16.47;;;11.73;;
3054;SDS011;1537;52.018;8.542;2023-04-15T05:41:30;20.73;;;11.93;;
3054;SDS011;1537;52.018;8.542;2023-04-15T05:44:56;15.90;;;12.10;;
3054;SDS011;1537;52.018;8.542;2023-04-15T05:48:21;18.30;;;13.60;;
3054;SDS011;1537;52.018;8.542;2023-04-15T05:51:47;19.30;;;11.33;;
3054;SDS011;1537;52.018;8.542;2023-04-15T05:55:12;16.60;;;11.83;;
3054;SDS011;1537;52.018;8.542;2023-04-15T05:58:37;15.97;;;12.40;;
3054;SDS011;1537;52.018;8.542;2023-04-15T06:02:03;20.83;;;11.73;;
3054;SDS011;1537;52.018;8.542;2023-04-15T06:05:28;17.60;;;11.57;;
3054;SDS011;1537;52.018;8.542;2023-04-15T06:08:53;19.70;;;13.50;;
3054;SDS011;1537;52.018;8.542;2023-04-15T06:12:19;16.93;;;12.73;;
3054;SDS011;1537;52.018;8.542;2023-04-15T06:15:44;18.57;;;12.00;;
3054;SDS011;1537;52.018;8.542;2023-04-15T06:19:10;17.10;;;12.83;;
3054;SDS011;1537;52.018;8.542;2023-04-15T06:22:36;26.40;;;12.63;;
3054;SDS011;1537;52.018;8.542;2023-04-15T06:26:01;17.37;;;12.50;;
3054;SDS011;1537;52.018;8.542;2023-04-15T06:29:26;25.60;;;13.03;;
3054;SDS011;1537;52.018;8.542;2023-04-15T06:32:51;22.40;;;13.00;;
3054;SDS011;1537;52.018;8.542;2023-04-15T06:36:18;22.43;;;12.50;;
3054;SDS011;1537;52.018;8.542;2023-04-15T06:39:43;20.40;;;10.90;;
3054;SDS011;1537;52.018;8.542;2023-04-15T06:43:08;16.77;;;11.30;;
3054;SDS011;1537;52.018;8.542;2023-04-15T06:46:33;18.03;;;11.23;;
3054;SDS011;1537;52.018;8.542;2023-04-15T06:49:59;20.80;;;12.70;;
3054;SDS011;1537;52.018;8.542;2023-04-15T06:53:25;24.30;;;16.40;;
3054;SDS011;1537;52.018;8.542;2023-04-15T06:56:56;31.40;;;19.70;;
3054;SDS011;1537;52.018;8.542;2023-04-15T07:00:21;29.33;;;20.40;;
3054;SDS011;1537;52.018;8.542;2023-04-15T07:03:46;38.03;;;24.37;;
3054;SDS011;1537;52.018;8.542;2023-04-15T07:07:13;34.93;;;22.07;;
3054;SDS011;1537;52.018;8.542;2023-04-15T07:10:46;31.33;;;19.27;;
3054;SDS011;1537;52.018;8.542;2023-04-15T07:14:14;40.33;;;25.23;;
3054;SDS011;1537;52.018;8.542;2023-04-15T07:17:47;42.70;;;26.80;;
3054;SDS011;1537;52.018;8.542;2023-04-15T07:21:13;46.00;;;27.40;;
3054;SDS011;1537;52.018;8.542;2023-04-15T07:24:38;42.40;;;26.17;;
3054;SDS011;1537;52.018;8.542;2023-04-15T07:28:07;43.03;;;25.70;;
3054;SDS011;1537;52.018;8.542;2023-04-15T07:31:33;36.20;;;23.00;;
3054;SDS011;1537;52.018;8.542;2023-04-15T07:35:00;30.17;;;19.83;;
3054;SDS011;1537;52.018;8.542;2023-04-15T07:38:27;31.80;;;18.30;;
3054;SDS011;1537;52.018;8.542;2023-04-15T07:41:52;24.67;;;16.63;;
3054;SDS011;1537;52.018;8.542;2023-04-15T07:45:18;27.10;;;14.67;;
3054;SDS011;1537;52.018;8.542;2023-04-15T07:48:45;25.03;;;13.90;;
3054;SDS011;1537;52.018;8.542;2023-04-15T07:52:10;27.70;;;16.17;;
3054;SDS011;1537;52.018;8.542;2023-04-15T07:55:38;27.60;;;14.30;;
3054;SDS011;1537;52.018;8.542;2023-04-15T07:59:06;25.23;;;15.23;;
3054;SDS011;1537;52.018;8.542;2023-04-15T08:02:33;21.77;;;13.40;;
3054;SDS011;1537;52.018;8.542;2023-04-15T08:06:02;24.63;;;14.00;;
3054;SDS011;1537;52.018;8.542;2023-04-15T08:09:28;20.70;;;13.07;;
3054;SDS011;1537;52.018;8.542;2023-04-15T08:12:53;19.20;;;11.43;;
3054;SDS011;1537;52.018;8.542;2023-04-15T08:16:25;18.87;;;12.17;;
3054;SDS011;1537;52.018;8.542;2023-04-15T08:19:52;20.23;;;13.60;;
3054;SDS011;1537;52.018;8.542;2023-04-15T08:23:17;17.73;;;11.00;;
3054;SDS011;1537;52.018;8.542;2023-04-15T08:26:42;17.80;;;12.73;;
3054;SDS011;1537;52.018;8.542;2023-04-15T08:30:07;19.90;;;12.03;;
3054;SDS011;1537;52.018;8.542;2023-04-15T08:33:32;11.83;;;8.20;;
3054;SDS011;1537;52.018;8.542;2023-04-15T08:36:59;19.50;;;12.90;;
3054;SDS011;1537;52.018;8.542;2023-04-15T08:40:24;17.40;;;11.70;;
3054;SDS011;1537;52.018;8.542;2023-04-15T08:44:00;18.60;;;12.17;;
3054;SDS011;1537;52.018;8.542;2023-04-15T08:47:28;16.17;;;10.67;;
3054;SDS011;1537;52.018;8.542;2023-04-15T08:50:55;16.83;;;10.77;;
3054;SDS011;1537;52.018;8.542;2023-04-15T08:54:22;14.70;;;9.60;;
3054;SDS011;1537;52.018;8.542;2023-04-15T08:57:48;16.53;;;10.00;;
3054;SDS011;1537;52.018;8.542;2023-04-15T09:01:14;13.87;;;8.83;;
3054;SDS011;1537;52.018;8.542;2023-04-15T09:04:40;16.67;;;10.03;;
3054;SDS011;1537;52.018;8.542;2023-04-15T09:08:05;12.97;;;8.70;;
3054;SDS011;1537;52.018;8.542;2023-04-15T09:11:32;15.90;;;8.47;;
3054;SDS011;1537;52.018;8.542;2023-04-15T09:14:57;14.73;;;9.80;;
3054;SDS011;1537;52.018;8.542;2023-04-15T09:18:28;13.83;;;9.70;;
3054;SDS011;1537;52.018;8.542;2023-04-15T09:21:55;16.97;;;11.50;;
3054;SDS011;1537;52.018;8.542;2023-04-15T09:25:25;17.77;;;9.77;;
3054;SDS011;1537;52.018;8.542;2023-04-15T09:28:53;13.43;;;8.00;;
3054;SDS011;1537;52.018;8.542;2023-04-15T09:32:27;14.03;;;8.73;;
3054;SDS011;1537;52.018;8.542;2023-04-15T09:35:55;12.40;;;7.63;;
3054;SDS011;1537;52.018;8.542;2023-04-15T09:39:22;11.40;;;7.53;;
3054;SDS011;1537;52.018;8.542;2023-04-15T09:42:53;12.67;;;7.60;;
3054;SDS011;1537;52.018;8.542;2023-04-15T09:46:20;11.67;;;8.00;;
3054;SDS011;1537;52.018;8.542;2023-04-15T09:50:04;10.33;;;6.83;;
3054;SDS011;1537;52.018;8.542;2023-04-15T09:53:32;12.60;;;6.47;;
3054;SDS011;1537;52.018;8.542;2023-04-15T09:57:03;11.93;;;7.40;;
3054;SDS011;1537;52.018;8.542;2023-04-15T10:00:29;13.17;;;8.00;;
3054;SDS011;1537;52.018;8.542;2023-04-15T10:03:57;10.80;;;7.23;;
3054;SDS011;1537;52.018;8.542;2023-04-15T10:07:22;8.50;;;5.30;;
3054;SDS011;1537;52.018;8.542;2023-04-15T10:10:49;9.83;;;6.17;;
3054;SDS011;1537;52.018;8.542;2023-04-15T10:14:14;12.83;;;7.00;;
3054;SDS011;1537;52.018;8.542;2023-04-15T10:17:42;10.03;;;6.37;;
3054;SDS011;1537;52.018;8.542;2023-04-15T10:21:09;9.20;;;6.10;;
3054;SDS011;1537;52.018;8.542;2023-04-15T10:24:36;9.37;;;5.60;;
3054;SDS011;1537;52.018;8.542;2023-04-15T10:28:03;10.07;;;6.63;;
3054;SDS011;1537;52.018;8.542;2023-04-15T10:31:30;9.90;;;6.30;;
3054;SDS011;1537;52.018;8.542;2023-04-15T10:34:58;8.30;;;5.30;;
3054;SDS011;1537;52.018;8.542;2023-04-15T10:38:31;8.30;;;4.90;;
3054;SDS011;1537;52.018;8.542;2023-04-15T10:42:04;9.53;;;5.83;;
3054;SDS011;1537;52.018;8.542;2023-04-15T10:45:31;7.67;;;4.30;;
3054;SDS011;1537;52.018;8.542;2023-04-15T10:48:57;9.87;;;5.40;;
3054;SDS011;1537;52.018;8.542;2023-04-15T10:52:22;9.60;;;5.67;;
3054;SDS011;1537;52.018;8.542;2023-04-15T10:55:49;8.63;;;5.10;;
3054;SDS011;1537;52.018;8.542;2023-04-15T10:59:14;8.63;;;5.03;;
3054;SDS011;1537;52.018;8.542;2023-04-15T11:02:44;9.03;;;4.63;;
3054;SDS011;1537;52.018;8.542;2023-04-15T11:06:10;8.40;;;4.40;;
3054;SDS011;1537;52.018;8.542;2023-04-15T11:09:35;9.33;;;4.50;;
3054;SDS011;1537;52.018;8.542;2023-04-15T11:13:02;9.00;;;5.03;;
3054;SDS011;1537;52.018;8.542;2023-04-15T11:16:28;9.30;;;5.87;;
3054;SDS011;1537;52.018;8.542;2023-04-15T11:19:53;7.37;;;4.77;;
3054;SDS011;1537;52.018;8.542;2023-04-15T11:23:19;11.10;;;5.90;;
3054;SDS011;1537;52.018;8.542;2023-04-15T11:26:55;9.77;;;6.00;;
3054;SDS011;1537;52.018;8.542;2023-04-15T11:30:24;9.63;;;6.20;;
3054;SDS011;1537;52.018;8.542;2023-04-15T11:33:53;8.40;;;5.63;;
3054;SDS011;1537;52.018;8.542;2023-04-15T11:37:26;9.37;;;6.10;;
3054;SDS011;1537;52.018;8.542;2023-04-15T11:40:52;10.10;;;6.80;;
3054;SDS011;1537;52.018;8.542;2023-04-15T11:44:17;9.33;;;6.13;;
3054;SDS011;1537;52.018;8.542;2023-04-15T11:47:44;11.07;;;7.47;;
3054;SDS011;1537;52.018;8.542;2023-04-15T11:51:09;8.20;;;5.80;;
3054;SDS011;1537;52.018;8.542;2023-04-15T11:54:34;9.20;;;5.30;;
3054;SDS011;1537;52.018;8.542;2023-04-15T11:58:04;8.20;;;6.10;;
3054;SDS011;1537;52.018;8.542;2023-04-15T12:01:30;9.23;;;6.17;;
3054;SDS011;1537;52.018;8.542;2023-04-15T12:05:02;9.40;;;6.10;;
3054;SDS011;1537;52.018;8.542;2023-04-15T12:08:33;10.43;;;6.33;;
3054;SDS011;1537;52.018;8.542;2023-04-15T12:12:41;10.10;;;5.40;;
3054;SDS011;1537;52.018;8.542;2023-04-15T12:16:05;7.97;;;4.53;;
3054;SDS011;1537;52.018;8.542;2023-04-15T12:19:33;8.77;;;6.17;;
3054;SDS011;1537;52.018;8.542;2023-04-15T12:23:05;6.70;;;5.07;;
3054;SDS011;1537;52.018;8.542;2023-04-15T12:26:29;7.97;;;5.70;;
3054;SDS011;1537;52.018;8.542;2023-04-15T12:30:02;9.63;;;6.30;;
3054;SDS011;1537;52.018;8.542;2023-04-15T12:33:31;10.23;;;6.33;;
3054;SDS011;1537;52.018;8.542;2023-04-15T12:36:56;8.57;;;5.27;;
3054;SDS011;1537;52.018;8.542;2023-04-15T12:40:21;7.00;;;5.30;;
3054;SDS011;1537;52.018;8.542;2023-04-15T12:43:45;8.73;;;5.40;;
3054;SDS011;1537;52.018;8.542;2023-04-15T12:47:10;7.50;;;3.93;;
3054;SDS011;1537;52.018;8.542;2023-04-15T12:50:34;5.90;;;4.20;;
3054;SDS011;1537;52.018;8.542;2023-04-15T12:53:58;6.30;;;3.83;;
3054;SDS011;1537;52.018;8.542;2023-04-15T12:57:23;4.70;;;2.77;;
3054;SDS011;1537;52.018;8.542;2023-04-15T13:00:47;6.43;;;3.60;;
3054;SDS011;1537;52.018;8.542;2023-04-15T13:04:10;6.40;;;3.73;;
3054;SDS011;1537;52.018;8.542;2023-04-15T13:07:34;6.83;;;3.70;;
3054;SDS011;1537;52.018;8.542;2023-04-15T13:10:58;6.77;;;4.23;;
3054;SDS011;1537;52.018;8.542;2023-04-15T13:14:23;5.70;;;3.60;;
3054;SDS011;1537;52.018;8.542;2023-04-15T13:17:48;6.40;;;3.17;;
3054;SDS011;1537;52.018;8.542;2023-04-15T13:21:12;6.90;;;4.60;;
3054;SDS011;1537;52.018;8.542;2023-04-15T13:24:35;5.70;;;3.70;;
3054;SDS011;1537;52.018;8.542;2023-04-15T13:28:00;7.90;;;4.77;;
3054;SDS011;1537;52.018;8.542;2023-04-15T13:31:25;8.90;;;6.03;;
3054;SDS011;1537;52.018;8.542;2023-04-15T13:34:49;9.77;;;5.23;;
3054;SDS011;1537;52.018;8.542;2023-04-15T13:38:13;8.60;;;5.20;;
3054;SDS011;1537;52.018;8.542;2023-04-15T13:41:36;8.30;;;5.50;;
3054;SDS011;1537;52.018;8.542;2023-04-15T13:45:00;12.40;;;6.30;;
3054;SDS011;1537;52.018;8.542;2023-04-15T13:48:27;9.97;;;7.63;;
3054;SDS011;1537;52.018;8.542;2023-04-15T13:51:50;12.33;;;8.20;;
3054;SDS011;1537;52.018;8.542;2023-04-15T13:55:14;12.20;;;7.20;;
3054;SDS011;1537;52.018;8.542;2023-04-15T13:58:42;11.77;;;6.43;;
3054;SDS011;1537;52.018;8.542;2023-04-15T14:02:06;7.50;;;5.10;;
3054;SDS011;1537;52.018;8.542;2023-04-15T14:05:31;9.37;;;6.27;;
3054;SDS011;1537;52.018;8.542;2023-04-15T14:08:55;10.00;;;6.43;;
3054;SDS011;1537;52.018;8.542;2023-04-15T14:12:19;12.13;;;8.30;;
3054;SDS011;1537;52.018;8.542;2023-04-15T14:15:42;11.53;;;8.73;;
3054;SDS011;1537;52.018;8.542;2023-04-15T14:19:06;16.10;;;10.07;;
3054;SDS011;1537;52.018;8.542;2023-04-15T14:22:32;12.17;;;9.13;;
3054;SDS011;1537;52.018;8.542;2023-04-15T14:25:55;13.40;;;10.20;;
3054;SDS011;1537;52.018;8.542;2023-04-15T14:29:19;12.63;;;9.07;;
3054;SDS011;1537;52.018;8.542;2023-04-15T14:32:43;15.60;;;10.73;;
3054;SDS011;1537;52.018;8.542;2023-04-15T14:36:08;13.73;;;11.47;;
3054;SDS011;1537;52.018;8.542;2023-04-15T14:39:33;18.00;;;12.70;;
3054;SDS011;1537;52.018;8.542;2023-04-15T14:42:58;16.73;;;10.47;;
3054;SDS011;1537;52.018;8.542;2023-04-15T14:46:21;16.23;;;12.10;;
3054;SDS011;1537;52.018;8.542;2023-04-15T14:49:45;17.93;;;11.80;;
3054;SDS011;1537;52.018;8.542;2023-04-15T14:53:09;14.90;;;10.93;;
3054;SDS011;1537;52.018;8.542;2023-04-15T14:56:34;16.70;;;10.50;;
3054;SDS011;1537;52.018;8.542;2023-04-15T14:59:57;16.30;;;11.53;;
3054;SDS011;1537;52.018;8.542;2023-04-15T15:03:22;17.97;;;12.00;;
3054;SDS011;1537;52.018;8.542;2023-04-15T15:06:45;17.80;;;12.00;;
3054;SDS011;1537;52.018;8.542;2023-04-15T15:10:10;15.20;;;10.83;;
3054;SDS011;1537;52.018;8.542;2023-04-15T15:13:35;14.63;;;12.10;;
3054;SDS011;1537;52.018;8.542;2023-04-15T15:16:59;18.37;;;12.27;;
3054;SDS011;1537;52.018;8.542;2023-04-15T15:20:22;17.53;;;11.63;;
3054;SDS011;1537;52.018;8.542;2023-04-15T15:23:46;14.87;;;11.47;;
3054;SDS011;1537;52.018;8.542;2023-04-15T15:27:10;16.63;;;12.10;;
3054;SDS011;1537;52.018;8.542;2023-04-15T15:30:35;18.30;;;11.60;;
3054;SDS011;1537;52.018;8.542;2023-04-15T15:33:59;16.30;;;12.30;;
3054;SDS011;1537;52.018;8.542;2023-04-15T15:37:23;13.00;;;8.80;;
3054;SDS011;1537;52.018;8.542;2023-04-15T15:40:46;14.33;;;10.17;;
3054;SDS011;1537;52.018;8.542;2023-04-15T15:44:10;17.90;;;11.67;;
3054;SDS011;1537;52.018;8.542;2023-04-15T15:47:35;14.30;;;10.03;;
3054;SDS011;1537;52.018;8.542;2023-04-15T15:50:59;13.20;;;9.20;;
3054;SDS011;1537;52.018;8.542;2023-04-15T15:54:24;15.13;;;9.30;;
3054;SDS011;1537;52.018;8.542;2023-04-15T15:57:48;12.83;;;9.43;;
3054;SDS011;1537;52.018;8.542;2023-04-15T16:01:12;14.10;;;10.50;;
3054;SDS011;1537;52.018;8.542;2023-04-15T16:04:37;16.17;;;8.87;;
3054;SDS011;1537;52.018;8.542;2023-04-15T16:08:01;16.10;;;10.03;;
3054;SDS011;1537;52.018;8.542;2023-04-15T16:11:25;14.67;;;10.13;;
3054;SDS011;1537;52.018;8.542;2023-04-15T16:14:48;17.53;;;10.97;;
3054;SDS011;1537;52.018;8.542;2023-04-15T16:18:12;14.00;;;7.57;;
3054;SDS011;1537;52.018;8.542;2023-04-15T16:21:37;13.87;;;9.73;;
3054;SDS011;1537;52.018;8.542;2023-04-15T16:25:01;16.20;;;12.40;;
3054;SDS011;1537;52.018;8.542;2023-04-15T16:28:25;14.00;;;10.07;;
3054;SDS011;1537;52.018;8.542;2023-04-15T16:31:49;21.40;;;11.40;;
3054;SDS011;1537;52.018;8.542;2023-04-15T16:35:12;15.50;;;9.80;;
3054;SDS011;1537;52.018;8.542;2023-04-15T16:38:39;17.80;;;13.13;;
3054;SDS011;1537;52.018;8.542;2023-04-15T16:42:02;18.60;;;13.30;;
3054;SDS011;1537;52.018;8.542;2023-04-15T16:45:26;16.90;;;12.33;;
3054;SDS011;1537;52.018;8.542;2023-04-15T16:48:50;20.43;;;14.27;;
3054;SDS011;1537;52.018;8.542;2023-04-15T16:52:14;22.03;;;12.97;;
3054;SDS011;1537;52.018;8.542;2023-04-15T16:55:39;22.80;;;16.57;;
3054;SDS011;1537;52.018;8.542;2023-04-15T16:59:03;26.00;;;15.80;;
3054;SDS011;1537;52.018;8.542;2023-04-15T17:02:27;24.70;;;15.40;;
3054;SDS011;1537;52.018;8.542;2023-04-15T17:05:52;28.47;;;17.00;;
3054;SDS011;1537;52.018;8.542;2023-04-15T17:09:15;25.97;;;16.83;;
3054;SDS011;1537;52.018;8.542;2023-04-15T17:12:40;25.80;;;18.13;;
3054;SDS011;1537;52.018;8.542;2023-04-15T17:16:04;29.60;;;19.17;;
3054;SDS011;1537;52.018;8.542;2023-04-15T17:19:33;23.63;;;15.77;;
3054;SDS011;1537;52.018;8.542;2023-04-15T17:23:00;39.23;;;24.87;;
3054;SDS011;1537;52.018;8.542;2023-04-15T17:26:24;23.33;;;14.70;;
3054;SDS011;1537;52.018;8.542;2023-04-15T17:29:50;29.23;;;18.03;;
3054;SDS011;1537;52.018;8.542;2023-04-15T17:33:34;29.20;;;19.03;;
3054;SDS011;1537;52.018;8.542;2023-04-15T17:37:37;30.77;;;19.70;;
3054;SDS011;1537;52.018;8.542;2023-04-15T17:41:21;31.83;;;19.83;;
3054;SDS011;1537;52.018;8.542;2023-04-15T17:45:07;25.83;;;16.60;;
3054;SDS011;1537;52.018;8.542;2023-04-15T17:48:51;27.30;;;16.60;;
3054;SDS011;1537;52.018;8.542;2023-04-15T17:52:34;29.03;;;19.57;;
3054;SDS011;1537;52.018;8.542;2023-04-15T17:56:18;33.03;;;18.37;;
3054;SDS011;1537;52.018;8.542;2023-04-15T18:00:01;28.23;;;19.17;;
3054;SDS011;1537;52.018;8.542;2023-04-15T18:03:54;32.97;;;21.70;;
3054;SDS011;1537;52.018;8.542;2023-04-15T18:07:38;32.23;;;20.70;;
3054;SDS011;1537;52.018;8.542;2023-04-15T18:11:21;28.63;;;18.30;;
3054;SDS011;1537;52.018;8.542;2023-04-15T18:15:05;29.77;;;19.60;;
3054;SDS011;1537;52.018;8.542;2023-04-15T18:18:50;29.90;;;21.17;;
3054;SDS011;1537;52.018;8.542;2023-04-15T18:22:15;29.80;;;20.73;;
3054;SDS011;1537;52.018;8.542;2023-04-15T18:25:39;37.40;;;21.83;;
3054;SDS011;1537;52.018;8.542;2023-04-15T18:29:04;38.60;;;23.27;;
3054;SDS011;1537;52.018;8.542;2023-04-15T18:32:27;34.20;;;22.70;;
3054;SDS011;1537;52.018;8.542;2023-04-15T18:35:53;37.60;;;23.13;;
3054;SDS011;1537;52.018;8.542;2023-04-15T18:39:19;35.37;;;22.80;;
3054;SDS011;1537;52.018;8.542;2023-04-15T18:42:43;37.33;;;22.20;;
3054;SDS011;1537;52.018;8.542;2023-04-15T18:46:06;37.20;;;23.87;;
3054;SDS011;1537;52.018;8.542;2023-04-15T18:49:32;40.37;;;26.33;;
3054;SDS011;1537;52.018;8.542;2023-04-15T18:52:56;33.93;;;23.07;;
3054;SDS011;1537;52.018;8.542;2023-04-15T18:56:21;35.30;;;21.90;;
3054;SDS011;1537;52.018;8.542;2023-04-15T18:59:44;34.73;;;21.67;;
3054;SDS011;1537;52.018;8.542;2023-04-15T19:03:08;34.97;;;21.30;;
3054;SDS011;1537;52.018;8.542;2023-04-15T19:06:32;41.07;;;24.93;;
3054;SDS011;1537;52.018;8.542;2023-04-15T19:09:56;37.00;;;24.27;;
3054;SDS011;1537;52.018;8.542;2023-04-15T19:13:21;42.07;;;25.00;;
3054;SDS011;1537;52.018;8.542;2023-04-15T19:16:45;35.07;;;22.80;;
3054;SDS011;1537;52.018;8.542;2023-04-15T19:20:08;36.57;;;22.70;;
3054;SDS011;1537;52.018;8.542;2023-04-15T19:23:33;38.60;;;24.80;;
3054;SDS011;1537;52.018;8.542;2023-04-15T19:26:56;41.77;;;27.83;;
3054;SDS011;1537;52.018;8.542;2023-04-15T19:30:21;40.80;;;25.40;;
3054;SDS011;1537;52.018;8.542;2023-04-15T19:33:45;39.07;;;22.93;;
3054;SDS011;1537;52.018;8.542;2023-04-15T19:37:09;33.67;;;22.60;;
3054;SDS011;1537;52.018;8.542;2023-04-15T19:40:33;42.73;;;24.90;;
3054;SDS011;1537;52.018;8.542;2023-04-15T19:43:57;42.23;;;24.30;;
3054;SDS011;1537;52.018;8.542;2023-04-15T19:47:22;45.17;;;26.83;;
3054;SDS011;1537;52.018;8.542;2023-04-15T19:50:45;38.90;;;26.23;;
3054;SDS011;1537;52.018;8.542;2023-04-15T19:54:09;43.57;;;25.77;;
3054;SDS011;1537;52.018;8.542;2023-04-15T19:57:33;41.27;;;27.20;;
3054;SDS011;1537;52.018;8.542;2023-04-15T20:00:57;44.00;;;26.50;;
3054;SDS011;1537;52.018;8.542;2023-04-15T20:04:23;44.67;;;26.40;;
3054;SDS011;1537;52.018;8.542;2023-04-15T20:07:47;40.83;;;23.57;;
3054;SDS011;1537;52.018;8.542;2023-04-15T20:11:13;42.40;;;26.60;;
3054;SDS011;1537;52.018;8.542;2023-04-15T20:14:37;45.67;;;26.77;;
3054;SDS011;1537;52.018;8.542;2023-04-15T20:18:01;46.17;;;27.07;;
3054;SDS011;1537;52.018;8.542;2023-04-15T20:21:26;56.13;;;29.23;;
3054;SDS011;1537;52.018;8.542;2023-04-15T20:24:49;43.23;;;27.07;;
3054;SDS011;1537;52.018;8.542;2023-04-15T20:28:13;45.20;;;26.50;;
3054;SDS011;1537;52.018;8.542;2023-04-15T20:31:38;46.07;;;26.37;;
3054;SDS011;1537;52.018;8.542;2023-04-15T20:35:03;49.57;;;29.50;;
3054;SDS011;1537;52.018;8.542;2023-04-15T20:38:30;48.50;;;29.07;;
3054;SDS011;1537;52.018;8.542;2023-04-15T20:41:54;41.67;;;26.47;;
3054;SDS011;1537;52.018;8.542;2023-04-15T20:45:18;51.17;;;33.20;;
3054;SDS011;1537;52.018;8.542;2023-04-15T20:48:42;50.50;;;27.53;;
3054;SDS011;1537;52.018;8.542;2023-04-15T20:52:06;49.93;;;30.40;;
3054;SDS011;1537;52.018;8.542;2023-04-15T20:55:31;54.80;;;30.83;;